createdAt,value
2023-04-15T00:00:24.829Z,139.10
2023-04-15T00:01:14.883Z,141.46
2023-04-15T00:02:04.993Z,138.93
2023-04-15T00:02:55.177Z,140.37
2023-04-15T00:03:45.356Z,139.89
2023-04-15T00:04:35.251Z,140.80
2023-04-15T00:05:25.283Z,141.92
2023-04-15T00:06:15.331Z,139.81
2023-04-15T00:07:05.670Z,138.17
2023-04-15T00:07:55.758Z,138.38
2023-04-15T00:08:45.785Z,142.34
2023-04-15T00:09:35.838Z,140.12
2023-04-15T00:10:25.871Z,140.21
2023-04-15T00:11:15.906Z,142.82
2023-04-15T00:12:05.962Z,140.60
2023-04-15T00:12:56.053Z,137.97
2023-04-15T00:13:46.089Z,138.15
2023-04-15T00:14:36.165Z,138.55
2023-04-15T00:15:26.207Z,140.31
2023-04-15T00:16:16.317Z,141.58
2023-04-15T00:17:06.316Z,142.72
2023-04-15T00:17:56.479Z,138.10
2023-04-15T00:18:46.429Z,139.34
2023-04-15T00:19:36.476Z,142.96
2023-04-15T00:20:26.505Z,142.65
2023-04-15T00:21:16.573Z,142.81
2023-04-15T00:22:06.603Z,141.03
2023-04-15T00:22:56.712Z,142.23
2023-04-15T00:23:46.750Z,142.94
2023-04-15T00:24:36.820Z,141.95
2023-04-15T00:25:26.882Z,140.84
2023-04-15T00:26:16.966Z,142.71
2023-04-15T00:27:06.986Z,143.43
2023-04-15T00:27:57.093Z,142.56
2023-04-15T00:28:47.122Z,141.50
2023-04-15T00:29:37.417Z,138.47
2023-04-15T00:30:27.448Z,143.01
2023-04-15T00:31:17.606Z,143.47
2023-04-15T00:32:07.562Z,143.73
2023-04-15T00:32:57.697Z,142.34
2023-04-15T00:33:47.693Z,141.99
2023-04-15T00:34:37.766Z,139.55
2023-04-15T00:35:27.794Z,139.13
2023-04-15T00:36:17.886Z,144.53
2023-04-15T00:37:07.910Z,141.35
2023-04-15T00:37:58.011Z,141.69
2023-04-15T00:38:48.290Z,139.34
2023-04-15T00:39:38.329Z,138.46
2023-04-15T00:40:28.378Z,139.56
2023-04-15T00:41:18.410Z,141.18
2023-04-15T00:42:08.436Z,136.34
2023-04-15T00:42:58.499Z,138.41
2023-04-15T00:43:48.529Z,138.77
2023-04-15T00:44:38.572Z,139.78
2023-04-15T00:45:28.734Z,141.58
2023-04-15T00:46:18.818Z,139.08
2023-04-15T00:47:08.780Z,141.82
2023-04-15T00:47:58.896Z,141.54
2023-04-15T00:48:48.902Z,140.72
2023-04-15T00:49:38.970Z,141.28
2023-04-15T00:50:28.990Z,144.32
2023-04-15T00:51:19.038Z,141.70
2023-04-15T00:52:09.116Z,140.91
2023-04-15T00:52:59.201Z,139.29
2023-04-15T00:53:49.235Z,140.02
2023-04-15T00:54:39.561Z,140.83
2023-04-15T00:55:29.636Z,140.86
2023-04-15T00:56:19.713Z,140.78
2023-04-15T00:57:09.752Z,141.78
2023-04-15T00:57:59.840Z,141.47
2023-04-15T00:58:49.862Z,138.77
2023-04-15T00:59:39.940Z,143.93
2023-04-15T01:00:29.976Z,140.87
2023-04-15T01:01:20.057Z,141.23
2023-04-15T01:02:10.182Z,139.14
2023-04-15T01:03:00.546Z,142.49
2023-04-15T01:03:50.264Z,137.40
2023-04-15T01:04:40.224Z,138.21
2023-04-15T01:05:30.310Z,139.78
2023-04-15T01:06:20.380Z,140.07
2023-04-15T01:07:10.425Z,140.02
2023-04-15T01:08:00.546Z,141.63
2023-04-15T01:08:50.516Z,140.34
2023-04-15T01:09:40.565Z,143.36
2023-04-15T01:10:30.595Z,143.73
2023-04-15T01:11:20.650Z,141.46
2023-04-15T01:12:10.671Z,138.73
2023-04-15T01:13:00.781Z,141.74
2023-04-15T01:13:50.823Z,140.26
2023-04-15T01:14:40.866Z,137.55
2023-04-15T01:15:30.890Z,140.28
2023-04-15T01:16:21.007Z,140.58
2023-04-15T01:17:11.016Z,141.16
2023-04-15T01:18:01.353Z,140.00
2023-04-15T01:18:51.178Z,140.93
2023-04-15T01:19:41.232Z,139.25
2023-04-15T01:20:31.299Z,139.28
2023-04-15T01:21:21.376Z,139.59
2023-04-15T01:22:11.406Z,137.68
2023-04-15T01:23:01.503Z,137.63
2023-04-15T01:23:51.709Z,139.19
2023-04-15T01:24:41.777Z,142.98
2023-04-15T01:25:31.814Z,139.99
2023-04-15T01:26:22.143Z,139.07
2023-04-15T01:27:12.180Z,138.44
2023-04-15T01:28:02.260Z,140.96
2023-04-15T01:28:52.327Z,139.40
2023-04-15T01:29:42.346Z,140.31
2023-04-15T01:30:32.380Z,140.63
2023-04-15T01:31:22.544Z,143.03
2023-04-15T01:32:12.489Z,140.01
2023-04-15T01:33:02.650Z,137.59
2023-04-15T01:33:52.641Z,141.35
2023-04-15T01:34:42.739Z,141.63
2023-04-15T01:35:32.747Z,139.40
2023-04-15T01:36:22.796Z,138.58
2023-04-15T01:37:12.827Z,139.60
2023-04-15T01:38:02.937Z,138.14
2023-04-15T01:38:52.960Z,140.81
2023-04-15T01:39:43.039Z,137.85
2023-04-15T01:40:33.064Z,136.78
2023-04-15T01:41:23.144Z,140.79
2023-04-15T01:42:13.175Z,139.22
2023-04-15T01:43:03.236Z,138.10
2023-04-15T01:43:53.274Z,133.88
2023-04-15T01:44:43.345Z,140.23
2023-04-15T01:45:33.373Z,137.46
2023-04-15T01:46:23.508Z,134.42
2023-04-15T01:47:13.510Z,139.78
2023-04-15T01:48:03.673Z,136.18
2023-04-15T01:48:53.641Z,137.37
2023-04-15T01:49:43.721Z,137.74
2023-04-15T01:50:33.812Z,134.45
2023-04-15T01:51:23.864Z,139.50
2023-04-15T01:52:13.939Z,137.00
2023-04-15T01:53:04.035Z,135.62
2023-04-15T01:53:54.076Z,135.59
2023-04-15T01:54:44.156Z,131.70
2023-04-15T01:55:34.320Z,136.74
2023-04-15T01:56:24.404Z,135.05
2023-04-15T01:57:14.428Z,137.45
2023-04-15T01:58:04.529Z,135.49
2023-04-15T01:58:54.558Z,137.57
2023-04-15T01:59:44.604Z,137.89
2023-04-15T02:00:34.689Z,136.28
2023-04-15T02:01:24.771Z,133.11
2023-04-15T02:02:14.788Z,137.41
2023-04-15T02:03:04.971Z,136.02
2023-04-15T02:03:54.912Z,134.22
2023-04-15T02:04:44.920Z,135.47
2023-04-15T02:05:34.941Z,135.04
2023-04-15T02:06:25.040Z,139.14
2023-04-15T02:07:15.061Z,137.06
2023-04-15T02:08:05.113Z,137.90
2023-04-15T02:08:55.212Z,135.77
2023-04-15T02:09:45.278Z,138.80
2023-04-15T02:10:35.300Z,135.86
2023-04-15T02:11:25.382Z,140.11
2023-04-15T02:12:15.412Z,136.03
2023-04-15T02:13:05.520Z,133.95
2023-04-15T02:13:55.573Z,133.47
2023-04-15T02:14:45.606Z,134.17
2023-04-15T02:15:35.636Z,137.25
2023-04-15T02:16:25.725Z,134.67
2023-04-15T02:17:15.746Z,135.14
2023-04-15T02:18:06.109Z,137.47
2023-04-15T02:18:56.152Z,134.82
2023-04-15T02:19:46.186Z,134.19
2023-04-15T02:20:36.281Z,139.14
2023-04-15T02:21:26.303Z,138.32
2023-04-15T02:22:16.356Z,133.78
2023-04-15T02:23:06.397Z,136.75
2023-04-15T02:23:56.447Z,137.22
2023-04-15T02:24:46.524Z,139.24
2023-04-15T02:25:36.566Z,133.26
2023-04-15T02:26:26.596Z,139.92
2023-04-15T02:27:16.640Z,133.78
2023-04-15T02:28:06.707Z,133.13
2023-04-15T02:28:56.743Z,132.73
2023-04-15T02:29:46.820Z,133.83
2023-04-15T02:30:36.843Z,131.53
2023-04-15T02:31:26.940Z,136.36
2023-04-15T02:32:16.973Z,136.13
2023-04-15T02:33:07.067Z,134.58
2023-04-15T02:33:57.101Z,134.37
2023-04-15T02:34:47.141Z,135.89
2023-04-15T02:35:37.172Z,134.36
2023-04-15T02:36:27.249Z,130.24
2023-04-15T02:37:17.248Z,129.54
2023-04-15T02:38:07.418Z,129.48
2023-04-15T02:38:57.433Z,131.53
2023-04-15T02:39:47.514Z,132.61
2023-04-15T02:40:37.550Z,131.11
2023-04-15T02:41:27.634Z,129.93
2023-04-15T02:42:17.665Z,134.01
2023-04-15T02:43:07.770Z,132.00
2023-04-15T02:43:57.820Z,134.14
2023-04-15T02:44:47.882Z,130.31
2023-04-15T02:45:37.985Z,130.24
2023-04-15T02:46:28.110Z,130.22
2023-04-15T02:47:18.268Z,131.92
2023-04-15T02:48:08.319Z,135.56
2023-04-15T02:48:58.403Z,132.32
2023-04-15T02:49:48.419Z,132.75
2023-04-15T02:50:38.453Z,131.67
2023-04-15T02:51:28.491Z,131.18
2023-04-15T02:52:18.521Z,133.00
2023-04-15T02:53:08.576Z,133.70
2023-04-15T02:53:58.673Z,134.95
2023-04-15T02:54:48.750Z,131.62
2023-04-15T02:55:38.766Z,124.84
2023-04-15T02:56:29.112Z,131.64
2023-04-15T02:57:19.139Z,132.03
2023-04-15T02:58:09.250Z,132.80
2023-04-15T02:58:59.682Z,129.05
2023-04-15T02:59:49.603Z,132.84
2023-04-15T03:00:39.630Z,134.03
2023-04-15T03:01:29.727Z,130.45
2023-04-15T03:02:19.818Z,133.64
2023-04-15T03:03:10.043Z,132.51
2023-04-15T03:04:00.003Z,130.99
2023-04-15T03:04:49.949Z,130.60
2023-04-15T03:05:39.982Z,132.55
2023-04-15T03:06:30.059Z,131.94
2023-04-15T03:07:20.112Z,133.85
2023-04-15T03:08:10.174Z,130.75
2023-04-15T03:09:00.473Z,129.52
2023-04-15T03:09:50.284Z,133.53
2023-04-15T03:10:40.285Z,131.87
2023-04-15T03:11:30.329Z,129.90
2023-04-15T03:12:20.406Z,132.65
2023-04-15T03:13:10.510Z,129.76
2023-04-15T03:14:00.551Z,125.87
2023-04-15T03:14:50.872Z,129.62
2023-04-15T03:15:40.920Z,128.49
2023-04-15T03:16:30.988Z,129.29
2023-04-15T03:17:21.026Z,132.49
2023-04-15T03:18:11.127Z,129.38
2023-04-15T03:19:01.493Z,128.17
2023-04-15T03:19:51.215Z,128.24
2023-04-15T03:20:41.355Z,130.61
2023-04-15T03:21:31.285Z,131.86
2023-04-15T03:22:21.330Z,131.51
2023-04-15T03:23:11.430Z,131.68
2023-04-15T03:24:01.514Z,133.92
2023-04-15T03:24:51.515Z,130.33
2023-04-15T03:25:41.550Z,126.70
2023-04-15T03:26:31.631Z,128.12
2023-04-15T03:27:21.637Z,130.17
2023-04-15T03:28:11.773Z,130.11
2023-04-15T03:29:01.971Z,126.30
2023-04-15T03:29:51.867Z,128.75
2023-04-15T03:30:41.960Z,127.01
2023-04-15T03:31:32.020Z,128.36
2023-04-15T03:32:22.062Z,126.78
2023-04-15T03:33:12.120Z,126.56
2023-04-15T03:34:02.156Z,130.42
2023-04-15T03:34:52.207Z,131.18
2023-04-15T03:35:42.231Z,125.13
2023-04-15T03:36:32.329Z,128.13
2023-04-15T03:37:22.635Z,129.63
2023-04-15T03:38:12.736Z,130.03
2023-04-15T03:39:02.898Z,129.32
2023-04-15T03:39:52.829Z,130.62
2023-04-15T03:40:42.899Z,128.40
2023-04-15T03:41:33.083Z,127.58
2023-04-15T03:42:23.021Z,131.94
2023-04-15T03:43:13.109Z,128.06
2023-04-15T03:44:03.147Z,128.39
2023-04-15T03:44:53.244Z,123.70
2023-04-15T03:45:43.265Z,125.27
2023-04-15T03:46:33.617Z,129.07
2023-04-15T03:47:23.627Z,127.53
2023-04-15T03:48:17.662Z,126.77
2023-04-15T03:49:04.004Z,125.18
2023-04-15T03:49:53.819Z,126.79
2023-04-15T03:50:43.887Z,123.98
2023-04-15T03:51:33.969Z,126.40
2023-04-15T03:52:24.000Z,123.53
2023-04-15T03:53:14.082Z,127.21
2023-04-15T03:54:04.113Z,124.11
2023-04-15T03:54:54.152Z,124.41
2023-04-15T03:55:44.193Z,125.15
2023-04-15T03:56:34.234Z,128.72
2023-04-15T03:57:24.298Z,125.68
2023-04-15T03:58:14.366Z,128.92
2023-04-15T03:59:04.401Z,126.94
2023-04-15T03:59:54.462Z,127.73
2023-04-15T04:00:44.532Z,124.72
2023-04-15T04:01:34.618Z,124.70
2023-04-15T04:02:24.759Z,123.76
2023-04-15T04:03:14.888Z,129.31
2023-04-15T04:04:04.835Z,125.01
2023-04-15T04:04:54.829Z,122.94
2023-04-15T04:05:44.852Z,126.08
2023-04-15T04:06:34.926Z,127.47
2023-04-15T04:07:24.959Z,124.97
2023-04-15T04:08:15.068Z,126.03
2023-04-15T04:09:05.080Z,127.47
2023-04-15T04:09:55.157Z,125.23
2023-04-15T04:10:45.220Z,120.97
2023-04-15T04:11:35.297Z,126.77
2023-04-15T04:12:25.338Z,128.64
2023-04-15T04:13:15.424Z,123.80
2023-04-15T04:14:05.426Z,128.31
2023-04-15T04:14:55.519Z,124.40
2023-04-15T04:15:45.574Z,126.58
2023-04-15T04:16:35.629Z,125.82
2023-04-15T04:17:25.671Z,126.95
2023-04-15T04:18:15.749Z,123.86
2023-04-15T04:19:05.761Z,124.85
2023-04-15T04:19:55.841Z,128.36
2023-04-15T04:20:46.076Z,124.16
2023-04-15T04:21:36.168Z,124.32
2023-04-15T04:22:26.183Z,123.26
2023-04-15T04:23:16.263Z,128.16
2023-04-15T04:24:06.296Z,123.47
2023-04-15T04:24:56.378Z,126.33
2023-04-15T04:25:46.398Z,127.15
2023-04-15T04:26:36.482Z,126.92
2023-04-15T04:27:26.503Z,124.17
2023-04-15T04:28:16.600Z,128.87
2023-04-15T04:29:06.667Z,126.29
2023-04-15T04:29:56.731Z,123.05
2023-04-15T04:30:46.757Z,125.32
2023-04-15T04:31:36.870Z,126.65
2023-04-15T04:32:26.899Z,125.59
2023-04-15T04:33:16.927Z,125.06
2023-04-15T04:34:06.993Z,122.54
2023-04-15T04:34:57.068Z,126.79
2023-04-15T04:35:47.111Z,127.47
2023-04-15T04:36:37.137Z,123.42
2023-04-15T04:37:27.173Z,126.30
2023-04-15T04:38:17.258Z,126.45
2023-04-15T04:39:07.292Z,124.61
2023-04-15T04:39:57.365Z,123.18
2023-04-15T04:40:47.451Z,125.85
2023-04-15T04:41:37.480Z,123.49
2023-04-15T04:42:27.505Z,126.46
2023-04-15T04:43:17.609Z,126.13
2023-04-15T04:44:07.641Z,124.13
2023-04-15T04:44:57.697Z,122.51
2023-04-15T04:45:47.719Z,125.25
2023-04-15T04:46:37.774Z,125.75
2023-04-15T04:47:27.846Z,125.37
2023-04-15T04:48:17.905Z,124.08
2023-04-15T04:49:07.939Z,126.11
2023-04-15T04:49:58.016Z,122.89
2023-04-15T04:50:48.072Z,124.71
2023-04-15T04:51:38.130Z,127.76
2023-04-15T04:52:28.201Z,120.22
2023-04-15T04:53:18.312Z,122.84
2023-04-15T04:54:08.352Z,124.33
2023-04-15T04:54:58.423Z,123.63
2023-04-15T04:55:48.459Z,124.36
2023-04-15T04:56:38.748Z,126.78
2023-04-15T04:57:28.774Z,123.84
2023-04-15T04:58:18.834Z,125.27
2023-04-15T04:59:08.870Z,122.08
2023-04-15T04:59:58.912Z,125.06
2023-04-15T05:00:49.049Z,125.09
2023-04-15T05:01:39.074Z,124.77
2023-04-15T05:02:29.265Z,120.88
2023-04-15T05:03:19.537Z,123.82
2023-04-15T05:04:09.345Z,129.33
2023-04-15T05:04:59.250Z,121.88
2023-04-15T05:05:49.580Z,126.82
2023-04-15T05:06:39.652Z,123.51
2023-04-15T05:07:29.678Z,125.80
2023-04-15T05:08:19.789Z,125.42
2023-04-15T05:09:09.821Z,130.52
2023-04-15T05:09:59.889Z,123.50
2023-04-15T05:10:49.917Z,124.97
2023-04-15T05:11:40.006Z,128.21
2023-04-15T05:12:30.035Z,127.85
2023-04-15T05:13:20.135Z,123.92
2023-04-15T05:14:10.170Z,123.91
2023-04-15T05:15:00.247Z,121.88
2023-04-15T05:15:50.277Z,127.63
2023-04-15T05:16:40.361Z,126.27
2023-04-15T05:17:30.439Z,125.02
2023-04-15T05:18:20.497Z,125.09
2023-04-15T05:19:10.510Z,126.41
2023-04-15T05:20:00.568Z,128.47
2023-04-15T05:20:50.596Z,129.84
2023-04-15T05:21:40.913Z,129.36
2023-04-15T05:22:30.984Z,128.54
2023-04-15T05:23:21.087Z,126.19
2023-04-15T05:24:11.366Z,124.83
2023-04-15T05:25:01.438Z,128.68
2023-04-15T05:25:51.462Z,126.70
2023-04-15T05:26:42.837Z,128.46
2023-04-15T05:27:31.865Z,130.66
2023-04-15T05:28:21.934Z,127.95
2023-04-15T05:29:11.954Z,125.69
2023-04-15T05:30:02.072Z,126.89
2023-04-15T05:30:52.095Z,128.58
2023-04-15T05:31:42.312Z,129.86
2023-04-15T05:32:32.246Z,124.87
2023-04-15T05:33:22.234Z,125.88
2023-04-15T05:34:12.250Z,128.78
2023-04-15T05:35:02.335Z,127.79
2023-04-15T05:35:52.372Z,130.13
2023-04-15T05:36:42.419Z,130.26
2023-04-15T05:37:32.450Z,129.62
2023-04-15T05:38:22.511Z,128.43
2023-04-15T05:39:12.540Z,124.72
2023-04-15T05:40:02.709Z,130.41
2023-04-15T05:40:52.712Z,130.59
2023-04-15T05:41:42.763Z,132.09
2023-04-15T05:42:32.789Z,129.72
2023-04-15T05:43:22.885Z,129.62
2023-04-15T05:44:12.906Z,131.22
2023-04-15T05:45:02.982Z,131.62
2023-04-15T05:45:53.064Z,126.26
2023-04-15T05:46:43.131Z,130.09
2023-04-15T05:47:33.150Z,126.85
2023-04-15T05:48:23.221Z,131.74
2023-04-15T05:49:13.480Z,129.57
2023-04-15T05:50:03.551Z,131.78
2023-04-15T05:50:53.595Z,131.40
2023-04-15T05:51:43.681Z,131.24
2023-04-15T05:52:33.697Z,130.83
2023-04-15T05:53:23.791Z,132.84
2023-04-15T05:54:13.818Z,132.11
2023-04-15T05:55:03.900Z,130.91
2023-04-15T05:55:53.923Z,132.96
2023-04-15T05:56:44.002Z,134.21
2023-04-15T05:57:34.050Z,134.25
2023-04-15T05:58:24.378Z,136.04
2023-04-15T05:59:14.412Z,134.84
2023-04-15T06:00:04.488Z,132.36
2023-04-15T06:00:54.521Z,131.91
2023-04-15T06:01:44.599Z,128.85
2023-04-15T06:02:34.754Z,134.66
2023-04-15T06:03:24.840Z,137.66
2023-04-15T06:04:14.856Z,135.11
2023-04-15T06:05:04.856Z,134.74
2023-04-15T06:05:54.887Z,136.07
2023-04-15T06:06:44.915Z,135.29
2023-04-15T06:07:34.949Z,132.87
2023-04-15T06:08:25.040Z,137.35
2023-04-15T06:09:15.072Z,135.28
2023-04-15T06:10:05.147Z,131.52
2023-04-15T06:10:55.180Z,136.98
2023-04-15T06:11:45.259Z,136.10
2023-04-15T06:12:35.334Z,136.36
2023-04-15T06:13:25.390Z,134.03
2023-04-15T06:14:15.666Z,136.91
2023-04-15T06:15:05.677Z,136.80
2023-04-15T06:15:55.733Z,136.88
2023-04-15T06:16:45.782Z,138.83
2023-04-15T06:17:35.869Z,135.02
2023-04-15T06:18:25.884Z,140.70
2023-04-15T06:19:15.909Z,138.52
2023-04-15T06:20:06.007Z,136.73
2023-04-15T06:20:56.028Z,136.99
2023-04-15T06:21:46.099Z,141.23
2023-04-15T06:22:36.124Z,136.74
2023-04-15T06:23:27.025Z,138.10
2023-04-15T06:24:16.266Z,138.22
2023-04-15T06:25:06.352Z,137.49
2023-04-15T06:25:56.372Z,138.21
2023-04-15T06:26:46.456Z,139.79
2023-04-15T06:27:36.530Z,141.47
2023-04-15T06:28:26.599Z,144.73
2023-04-15T06:29:16.611Z,141.75
2023-04-15T06:30:06.686Z,144.17
2023-04-15T06:30:56.899Z,141.89
2023-04-15T06:31:46.993Z,142.34
2023-04-15T06:32:37.084Z,139.14
2023-04-15T06:33:27.369Z,140.74
2023-04-15T06:34:17.394Z,142.12
2023-04-15T06:35:07.472Z,138.96
2023-04-15T06:35:57.521Z,142.94
2023-04-15T06:36:47.569Z,141.72
2023-04-15T06:37:37.607Z,140.76
2023-04-15T06:38:27.696Z,142.55
2023-04-15T06:39:17.727Z,142.85
2023-04-15T06:40:07.824Z,143.02
2023-04-15T06:40:57.846Z,144.45
2023-04-15T06:41:47.928Z,142.06
2023-04-15T06:42:38.190Z,140.43
2023-04-15T06:43:28.273Z,140.79
2023-04-15T06:44:18.298Z,143.54
2023-04-15T06:45:08.631Z,141.29
2023-04-15T06:45:58.676Z,139.57
2023-04-15T06:46:48.703Z,143.41
2023-04-15T06:47:38.822Z,138.88
2023-04-15T06:48:28.804Z,141.28
2023-04-15T06:49:18.827Z,142.35
2023-04-15T06:50:08.908Z,141.40
2023-04-15T06:50:58.934Z,141.58
2023-04-15T06:51:49.122Z,143.28
2023-04-15T06:52:39.128Z,141.53
2023-04-15T06:53:29.191Z,141.80
2023-04-15T06:54:19.221Z,140.27
2023-04-15T06:55:09.288Z,142.93
2023-04-15T06:55:59.311Z,143.80
2023-04-15T06:56:49.400Z,141.69
2023-04-15T06:57:39.447Z,141.37
2023-04-15T06:58:29.476Z,142.97
2023-04-15T06:59:19.507Z,143.06
2023-04-15T07:00:09.585Z,143.51
2023-04-15T07:00:59.630Z,140.80
2023-04-15T07:01:49.742Z,143.97
2023-04-15T07:02:39.824Z,141.86
2023-04-15T07:03:31.455Z,145.83
2023-04-15T07:04:19.847Z,143.29
2023-04-15T07:05:09.874Z,146.08
2023-04-15T07:05:59.945Z,144.93
2023-04-15T07:06:50.019Z,146.45
2023-04-15T07:07:40.064Z,148.51
2023-04-15T07:08:30.122Z,147.11
2023-04-15T07:09:20.157Z,143.50
2023-04-15T07:10:10.342Z,148.56
2023-04-15T07:11:00.349Z,145.27
2023-04-15T07:11:50.430Z,146.78
2023-04-15T07:12:40.493Z,141.04
2023-04-15T07:13:30.565Z,146.20
2023-04-15T07:14:20.572Z,143.43
2023-04-15T07:15:10.650Z,142.70
2023-04-15T07:16:00.677Z,144.21
2023-04-15T07:16:50.797Z,146.33
2023-04-15T07:17:40.847Z,146.82
2023-04-15T07:18:30.907Z,146.24
2023-04-15T07:19:21.150Z,143.89
2023-04-15T07:20:11.197Z,142.89
2023-04-15T07:21:01.268Z,143.72
2023-04-15T07:21:51.346Z,143.89
2023-04-15T07:22:41.400Z,143.46
2023-04-15T07:23:31.519Z,140.83
2023-04-15T07:24:21.526Z,142.80
2023-04-15T07:25:11.577Z,141.82
2023-04-15T07:26:01.648Z,144.68
2023-04-15T07:26:51.645Z,140.27
2023-04-15T07:27:41.717Z,143.64
2023-04-15T07:28:32.083Z,140.73
2023-04-15T07:29:22.117Z,140.57
2023-04-15T07:30:12.158Z,143.07
2023-04-15T07:31:02.224Z,141.90
2023-04-15T07:31:52.245Z,139.09
2023-04-15T07:32:42.300Z,141.03
2023-04-15T07:33:32.337Z,141.84
2023-04-15T07:34:22.368Z,145.10
2023-04-15T07:35:12.452Z,140.91
2023-04-15T07:36:02.470Z,141.81
2023-04-15T07:36:52.550Z,142.36
2023-04-15T07:37:42.582Z,142.37
2023-04-15T07:38:32.633Z,140.04
2023-04-15T07:39:22.677Z,139.06
2023-04-15T07:40:12.736Z,143.91
2023-04-15T07:41:02.784Z,141.24
2023-04-15T07:41:52.859Z,136.36
2023-04-15T07:42:42.897Z,138.75
2023-04-15T07:43:33.002Z,144.46
2023-04-15T07:44:23.048Z,139.93
2023-04-15T07:45:13.121Z,141.16
2023-04-15T07:46:03.231Z,141.13
2023-04-15T07:46:53.188Z,141.83
2023-04-15T07:47:43.245Z,137.30
2023-04-15T07:48:34.916Z,137.10
2023-04-15T07:49:23.347Z,141.51
2023-04-15T07:50:13.409Z,142.14
2023-04-15T07:51:03.685Z,137.93
2023-04-15T07:51:53.759Z,140.70
2023-04-15T07:52:43.788Z,139.36
2023-04-15T07:53:34.144Z,143.53
2023-04-15T07:54:24.162Z,141.01
2023-04-15T07:55:14.280Z,140.14
2023-04-15T07:56:04.288Z,142.99
2023-04-15T07:56:54.367Z,139.62
2023-04-15T07:57:44.397Z,142.22
2023-04-15T07:58:34.498Z,139.76
2023-04-15T07:59:24.527Z,138.11
2023-04-15T08:00:14.611Z,142.09
2023-04-15T08:01:04.634Z,142.84
2023-04-15T08:01:54.747Z,136.17
2023-04-15T08:02:45.039Z,135.77
2023-04-15T08:03:35.229Z,138.86
2023-04-15T08:04:25.217Z,138.04
2023-04-15T08:05:15.225Z,139.93
2023-04-15T08:06:05.203Z,136.28
2023-04-15T08:06:55.252Z,139.04
2023-04-15T08:07:45.269Z,137.47
2023-04-15T08:08:35.402Z,140.02
2023-04-15T08:09:25.452Z,137.80
2023-04-15T08:10:15.509Z,138.05
2023-04-15T08:11:05.562Z,137.91
2023-04-15T08:11:55.606Z,138.08
2023-04-15T08:12:45.639Z,135.17
2023-04-15T08:13:35.738Z,135.77
2023-04-15T08:14:25.761Z,138.46
2023-04-15T08:15:15.844Z,138.57
2023-04-15T08:16:05.910Z,139.96
2023-04-15T08:16:55.919Z,138.46
2023-04-15T08:17:45.990Z,138.23
2023-04-15T08:18:36.021Z,138.95
2023-04-15T08:19:26.047Z,138.66
2023-04-15T08:20:16.140Z,139.91
2023-04-15T08:21:06.197Z,138.57
2023-04-15T08:21:56.267Z,136.24
2023-04-15T08:22:46.292Z,135.18
2023-04-15T08:23:36.376Z,138.68
2023-04-15T08:24:26.399Z,132.31
2023-04-15T08:25:16.736Z,136.13
2023-04-15T08:26:06.764Z,136.96
2023-04-15T08:26:56.864Z,136.98
2023-04-15T08:27:46.884Z,135.65
2023-04-15T08:28:36.967Z,132.58
2023-04-15T08:29:26.989Z,135.03
2023-04-15T08:30:17.063Z,135.35
2023-04-15T08:31:07.162Z,134.31
2023-04-15T08:31:57.250Z,137.69
2023-04-15T08:32:47.317Z,133.65
2023-04-15T08:33:37.292Z,132.87
2023-04-15T08:34:27.313Z,133.81
2023-04-15T08:35:17.355Z,135.95
2023-04-15T08:36:07.382Z,135.23
2023-04-15T08:36:57.472Z,135.84
2023-04-15T08:37:47.493Z,136.09
2023-04-15T08:38:37.613Z,131.47
2023-04-15T08:39:27.629Z,135.34
2023-04-15T08:40:17.713Z,133.73
2023-04-15T08:41:08.015Z,136.01
2023-04-15T08:41:58.059Z,132.31
2023-04-15T08:42:48.108Z,130.22
2023-04-15T08:43:38.183Z,134.49
2023-04-15T08:44:28.220Z,125.79
2023-04-15T08:45:18.261Z,131.98
2023-04-15T08:46:08.283Z,132.94
2023-04-15T08:46:58.425Z,131.97
2023-04-15T08:47:48.461Z,130.66
2023-04-15T08:48:38.533Z,129.31
2023-04-15T08:49:28.558Z,127.33
2023-04-15T08:50:18.688Z,134.34
2023-04-15T08:51:08.672Z,129.67
2023-04-15T08:51:58.730Z,128.48
2023-04-15T08:52:48.735Z,131.90
2023-04-15T08:53:38.839Z,130.00
2023-04-15T08:54:28.900Z,127.41
2023-04-15T08:55:18.987Z,126.75
2023-04-15T08:56:09.008Z,127.28
2023-04-15T08:56:59.091Z,126.04
2023-04-15T08:57:49.118Z,128.29
2023-04-15T08:58:39.240Z,129.66
2023-04-15T08:59:29.234Z,125.84
2023-04-15T09:00:19.322Z,127.75
2023-04-15T09:01:09.366Z,125.87
2023-04-15T09:01:59.506Z,126.01
2023-04-15T09:02:49.654Z,126.20
2023-04-15T09:03:39.937Z,128.53
2023-04-15T09:04:29.898Z,126.26
2023-04-15T09:05:19.936Z,124.92
2023-04-15T09:06:09.960Z,123.46
2023-04-15T09:07:00.037Z,127.19
2023-04-15T09:07:50.140Z,124.80
2023-04-15T09:08:40.130Z,126.92
2023-04-15T09:09:30.173Z,124.56
2023-04-15T09:10:20.211Z,126.65
2023-04-15T09:11:10.232Z,122.76
2023-04-15T09:12:00.315Z,120.09
2023-04-15T09:12:50.376Z,121.28
2023-04-15T09:13:40.459Z,118.15
2023-04-15T09:14:30.516Z,120.80
2023-04-15T09:15:20.597Z,123.82
2023-04-15T09:16:10.598Z,123.68
2023-04-15T09:17:00.796Z,123.24
2023-04-15T09:17:50.713Z,124.57
2023-04-15T09:18:40.786Z,124.23
2023-04-15T09:19:30.800Z,126.69
2023-04-15T09:20:20.870Z,123.71
2023-04-15T09:21:10.895Z,124.64
2023-04-15T09:22:01.022Z,125.79
2023-04-15T09:22:51.054Z,133.12
2023-04-15T09:23:41.184Z,136.74
2023-04-15T09:24:31.160Z,137.83
2023-04-15T09:25:21.231Z,143.57
2023-04-15T09:26:11.536Z,153.78
2023-04-15T09:27:01.621Z,154.36
2023-04-15T09:27:51.664Z,156.26
2023-04-15T09:28:41.777Z,161.69
2023-04-15T09:29:31.782Z,166.46
2023-04-15T09:30:21.943Z,170.71
2023-04-15T09:31:11.939Z,176.11
2023-04-15T09:32:02.041Z,183.07
2023-04-15T09:32:52.090Z,180.04
2023-04-15T09:33:42.101Z,183.41
2023-04-15T09:34:32.156Z,188.08
2023-04-15T09:35:22.214Z,195.73
2023-04-15T09:36:12.226Z,191.29
2023-04-15T09:37:02.281Z,195.48
2023-04-15T09:37:52.310Z,196.53
2023-04-15T09:38:42.379Z,198.47
2023-04-15T09:39:32.465Z,190.55
2023-04-15T09:40:22.488Z,196.42
2023-04-15T09:41:12.518Z,186.12
2023-04-15T09:42:02.591Z,187.12
2023-04-15T09:42:52.652Z,182.08
2023-04-15T09:43:42.733Z,181.11
2023-04-15T09:44:32.786Z,177.36
2023-04-15T09:45:23.163Z,176.71
2023-04-15T09:46:12.951Z,171.02
2023-04-15T09:47:02.978Z,170.36
2023-04-15T09:47:53.021Z,168.72
2023-04-15T09:48:43.351Z,168.94
2023-04-15T09:49:33.421Z,163.64
2023-04-15T09:50:23.488Z,162.98
2023-04-15T09:51:13.486Z,161.21
2023-04-15T09:52:06.027Z,165.54
2023-04-15T09:52:53.549Z,160.08
2023-04-15T09:53:43.685Z,165.91
2023-04-15T09:54:33.693Z,167.69
2023-04-15T09:55:23.773Z,171.84
2023-04-15T09:56:13.755Z,176.66
2023-04-15T09:57:03.833Z,187.97
2023-04-15T09:57:53.863Z,197.77
2023-04-15T09:58:44.237Z,201.98
2023-04-15T09:59:34.273Z,204.36
2023-04-15T10:00:24.384Z,207.35
2023-04-15T10:01:14.369Z,216.53
2023-04-15T10:02:04.487Z,214.00
2023-04-15T10:02:54.643Z,218.22
2023-04-15T10:03:44.774Z,218.47
2023-04-15T10:04:34.613Z,218.41
2023-04-15T10:05:24.662Z,215.76
2023-04-15T10:06:14.700Z,213.15
2023-04-15T10:07:04.740Z,212.64
2023-04-15T10:07:54.806Z,210.26
2023-04-15T10:08:44.887Z,212.99
2023-04-15T10:09:34.942Z,204.39
2023-04-15T10:10:25.006Z,201.07
2023-04-15T10:11:15.035Z,200.40
2023-04-15T10:12:05.160Z,196.09
2023-04-15T10:12:55.136Z,198.74
2023-04-15T10:13:45.184Z,194.17
2023-04-15T10:14:35.595Z,185.79
2023-04-15T10:15:25.563Z,182.38
2023-04-15T10:16:15.613Z,178.93
2023-04-15T10:17:05.687Z,178.10
2023-04-15T10:17:55.788Z,179.29
2023-04-15T10:18:45.769Z,170.69
2023-04-15T10:19:35.795Z,173.65
2023-04-15T10:20:25.823Z,169.80
2023-04-15T10:21:15.896Z,172.03
2023-04-15T10:22:05.965Z,169.29
2023-04-15T10:22:56.010Z,166.17
2023-04-15T10:23:46.060Z,164.01
2023-04-15T10:24:36.107Z,162.52